North Sea — D5LG9 — position and weather

sailwx.info

Track history (hours):
 
Tides and Currents Weather Stations Pressure Air Temp Water Temp Dewpoint Dewpoint Depression Visibility Wind Speed Wind Dir Waves Ship Positions

North Sea

Last reported at 2018-Aug-14 18:55 UTC. Time now 2018-Aug-14 19:29 UTC.
Position N 38°58' W 075°12'.

Length 229 m; draft 12.3 m.

Type: Tanker. MMSI: 636017501.

Date/timePositionNaut miles runAvg speedWind from/ knotsBaromVisibWave heightAir tempDewpointWater temp
2018-Aug-14 18:55N 38°58' W 075°12'0 0.1
2018-Aug-14 18:28N 38°58' W 075°12'0 0.1
2018-Aug-14 17:58N 38°58' W 075°12'0 0.0
2018-Aug-14 12:10N 38°58' W 075°12'0 0.4
2018-Aug-14 11:52N 38°58' W 075°12'0 0.3
2018-Aug-14 11:22N 38°58' W 075°12'0 0.1
2018-Aug-14 10:58N 38°58' W 075°12'0 0.0
2018-Aug-14 10:28N 38°58' W 075°12'0 0.0
2018-Aug-14 09:58N 38°58' W 075°12'0 0.1
2018-Aug-14 09:28N 38°58' W 075°12'0 0.1
2018-Aug-14 08:58N 38°58' W 075°12'0 0.0
2018-Aug-14 08:28N 38°58' W 075°12'0 0.1
2018-Aug-14 07:58N 38°58' W 075°12'0 0.1
2018-Aug-14 07:28N 38°58' W 075°12'0 0.1
2018-Aug-14 06:58N 38°58' W 075°12'0 0.0
2018-Aug-14 06:28N 38°58' W 075°12'0 0.0
2018-Aug-14 05:58N 38°58' W 075°12'0 0.3
2018-Aug-14 05:28N 38°58' W 075°12'0 0.1
2018-Aug-14 04:13N 38°58' W 075°12'0 0.1
2018-Aug-14 03:55N 38°58' W 075°12'0 0.0
2018-Aug-14 03:28N 38°58' W 075°12'0 0.0
2018-Aug-14 02:55N 38°58' W 075°12'0 0.0
2018-Aug-14 02:28N 38°58' W 075°12'0 0.0
2018-Aug-14 01:55N 38°58' W 075°12'0 0.0
2018-Aug-14 01:19N 38°58' W 075°12'0 0.1
2018-Aug-14 00:49N 38°58' W 075°12'0 0.1
2018-Aug-14 00:22N 38°58' W 075°12'0 0.0
2018-Aug-13 23:52N 38°58' W 075°12'0 0.4
2018-Aug-13 23:28N 38°58' W 075°12'0 0.3
2018-Aug-13 22:58N 38°58' W 075°12'0 0.1
2018-Aug-13 22:28N 38°58' W 075°12'1 1.8
2018-Aug-13 22:00N 38°57' W 075°11'3 5.2
2018-Aug-13 21:30N 38°55' W 075°10'44 9.5
2018-Aug-13 16:51N 38°26' W 074°27'412.1
2018-Aug-13 16:29N 38°25' W 074°22'712.3
2018-Aug-13 15:54N 38°23' W 074°13'512.1
2018-Aug-13 15:30N 38°22' W 074°07'712.1
2018-Aug-13 14:55N 38°21' W 073°58'  
2018-Aug-06 23:23N 40°22' W 031°40'612.7
2018-Aug-06 22:56N 40°22' W 031°32'512.8
2018-Aug-06 22:30N 40°21' W 031°25'2213.2
2018-Aug-06 20:52N 40°19' W 030°57'6713.0
2018-Aug-06 15:43N 40°11' W 029°30'613.4
2018-Aug-06 15:17N 40°10' W 029°23'1313.2
2018-Aug-06 14:18N 40°07' W 029°06'912.8
2018-Aug-06 13:37N 40°06' W 028°55'412.9
2018-Aug-06 13:19N 40°05' W 028°50'512.6
2018-Aug-06 12:56N 40°04' W 028°43'812.6
2018-Aug-06 12:16N 40°02' W 028°33'412.8
2018-Aug-06 11:55N 40°02' W 028°27'713.1
2018-Aug-06 11:25N 40°00' W 028°19'713.4
2018-Aug-06 10:56N 39°59' W 028°10'613.3
2018-Aug-06 10:29N 39°58' W 028°02'613.5
2018-Aug-06 10:00N 39°57' W 027°54'913.2
2018-Aug-06 09:19N 39°55' W 027°43'612.7
2018-Aug-06 08:50N 39°54' W 027°35'612.8
2018-Aug-06 08:22N 39°53' W 027°27'1513.1
2018-Aug-06 07:15N 39°50' W 027°08'2312.9
2018-Aug-06 05:27N 39°46' W 026°39'1213.0
2018-Aug-06 04:32N 39°43' W 026°24'112.1
2018-Aug-06 04:29N 39°43' W 026°23'613.0
2018-Aug-06 04:01N 39°42' W 026°15'1012.9
2018-Aug-06 03:13N 39°40' W 026°02'312.6
2018-Aug-06 03:00N 39°39' W 025°58'713.1
2018-Aug-06 02:29N 39°38' W 025°50'613.3
2018-Aug-06 02:00N 39°37' W 025°42'713.2
2018-Aug-06 01:30N 39°36' W 025°33'813.3
2018-Aug-06 00:53N 39°34' W 025°23'513.1
2018-Aug-06 00:30N 39°33' W 025°16'713.2
2018-Aug-05 23:58N 39°32' W 025°07'613.2
2018-Aug-05 23:30N 39°31' W 024°60'612.8
2018-Aug-05 23:01N 39°30' W 024°52'713.0
2018-Aug-05 22:29N 39°28' W 024°43'1313.1
2018-Aug-05 21:29N 39°26' W 024°26'1813.2
2018-Aug-05 20:07N 39°22' W 024°03'213.3
2018-Aug-05 19:57N 39°22' W 024°00'613.3
2018-Aug-05 19:29N 39°21' W 023°53'613.1
2018-Aug-05 19:00N 39°19' W 023°45'813.2
2018-Aug-05 18:24N 39°18' W 023°35'513.1
2018-Aug-05 18:00N 39°17' W 023°28'  
Track history (hours):
 
Tides and Currents Weather Stations Pressure Air Temp Water Temp Dewpoint Dewpoint Depression Visibility Wind Speed Wind Dir Waves Ship Positions

North Sea

Last reported at 2018-Aug-14 18:55 UTC. Time now 2018-Aug-14 19:29 UTC.
Position N 38°58' W 075°12'.

Length 229 m; draft 12.3 m.

Type: Tanker. MMSI: 636017501.

Date/timePositionNaut miles runAvg speedWind from/ knotsBaromVisibWave heightAir tempDewpointWater temp
2018-Aug-14 18:55N 38°58' W 075°12'0 0.1
2018-Aug-14 18:28N 38°58' W 075°12'0 0.1
2018-Aug-14 17:58N 38°58' W 075°12'0 0.0
2018-Aug-14 12:10N 38°58' W 075°12'0 0.4
2018-Aug-14 11:52N 38°58' W 075°12'0 0.3
2018-Aug-14 11:22N 38°58' W 075°12'0 0.1
2018-Aug-14 10:58N 38°58' W 075°12'0 0.0
2018-Aug-14 10:28N 38°58' W 075°12'0 0.0
2018-Aug-14 09:58N 38°58' W 075°12'0 0.1
2018-Aug-14 09:28N 38°58' W 075°12'0 0.1
2018-Aug-14 08:58N 38°58' W 075°12'0 0.0
2018-Aug-14 08:28N 38°58' W 075°12'0 0.1
2018-Aug-14 07:58N 38°58' W 075°12'0 0.1
2018-Aug-14 07:28N 38°58' W 075°12'0 0.1
2018-Aug-14 06:58N 38°58' W 075°12'0 0.0
2018-Aug-14 06:28N 38°58' W 075°12'0 0.0
2018-Aug-14 05:58N 38°58' W 075°12'0 0.3
2018-Aug-14 05:28N 38°58' W 075°12'0 0.1
2018-Aug-14 04:13N 38°58' W 075°12'0 0.1
2018-Aug-14 03:55N 38°58' W 075°12'0 0.0
2018-Aug-14 03:28N 38°58' W 075°12'0 0.0
2018-Aug-14 02:55N 38°58' W 075°12'0 0.0
2018-Aug-14 02:28N 38°58' W 075°12'0 0.0
2018-Aug-14 01:55N 38°58' W 075°12'0 0.0
2018-Aug-14 01:19N 38°58' W 075°12'0 0.1
2018-Aug-14 00:49N 38°58' W 075°12'0 0.1
2018-Aug-14 00:22N 38°58' W 075°12'0 0.0
2018-Aug-13 23:52N 38°58' W 075°12'0 0.4
2018-Aug-13 23:28N 38°58' W 075°12'0 0.3
2018-Aug-13 22:58N 38°58' W 075°12'0 0.1
2018-Aug-13 22:28N 38°58' W 075°12'1 1.8
2018-Aug-13 22:00N 38°57' W 075°11'3 5.2
2018-Aug-13 21:30N 38°55' W 075°10'44 9.5
2018-Aug-13 16:51N 38°26' W 074°27'412.1
2018-Aug-13 16:29N 38°25' W 074°22'712.3
2018-Aug-13 15:54N 38°23' W 074°13'512.1
2018-Aug-13 15:30N 38°22' W 074°07'712.1
2018-Aug-13 14:55N 38°21' W 073°58'  
2018-Aug-06 23:23N 40°22' W 031°40'612.7
2018-Aug-06 22:56N 40°22' W 031°32'512.8
2018-Aug-06 22:30N 40°21' W 031°25'2213.2
2018-Aug-06 20:52N 40°19' W 030°57'6713.0
2018-Aug-06 15:43N 40°11' W 029°30'613.4
2018-Aug-06 15:17N 40°10' W 029°23'1313.2
2018-Aug-06 14:18N 40°07' W 029°06'912.8
2018-Aug-06 13:37N 40°06' W 028°55'412.9
2018-Aug-06 13:19N 40°05' W 028°50'512.6
2018-Aug-06 12:56N 40°04' W 028°43'812.6
2018-Aug-06 12:16N 40°02' W 028°33'412.8
2018-Aug-06 11:55N 40°02' W 028°27'713.1
2018-Aug-06 11:25N 40°00' W 028°19'713.4
2018-Aug-06 10:56N 39°59' W 028°10'613.3
2018-Aug-06 10:29N 39°58' W 028°02'613.5
2018-Aug-06 10:00N 39°57' W 027°54'913.2
2018-Aug-06 09:19N 39°55' W 027°43'612.7
2018-Aug-06 08:50N 39°54' W 027°35'612.8
2018-Aug-06 08:22N 39°53' W 027°27'1513.1
2018-Aug-06 07:15N 39°50' W 027°08'2312.9
2018-Aug-06 05:27N 39°46' W 026°39'1213.0
2018-Aug-06 04:32N 39°43' W 026°24'112.1
2018-Aug-06 04:29N 39°43' W 026°23'613.0
2018-Aug-06 04:01N 39°42' W 026°15'1012.9
2018-Aug-06 03:13N 39°40' W 026°02'312.6
2018-Aug-06 03:00N 39°39' W 025°58'713.1
2018-Aug-06 02:29N 39°38' W 025°50'613.3
2018-Aug-06 02:00N 39°37' W 025°42'713.2
2018-Aug-06 01:30N 39°36' W 025°33'813.3
2018-Aug-06 00:53N 39°34' W 025°23'513.1
2018-Aug-06 00:30N 39°33' W 025°16'713.2
2018-Aug-05 23:58N 39°32' W 025°07'613.2
2018-Aug-05 23:30N 39°31' W 024°60'612.8
2018-Aug-05 23:01N 39°30' W 024°52'713.0
2018-Aug-05 22:29N 39°28' W 024°43'1313.1
2018-Aug-05 21:29N 39°26' W 024°26'1813.2
2018-Aug-05 20:07N 39°22' W 024°03'213.3
2018-Aug-05 19:57N 39°22' W 024°00'613.3
2018-Aug-05 19:29N 39°21' W 023°53'613.1
2018-Aug-05 19:00N 39°19' W 023°45'813.2
2018-Aug-05 18:24N 39°18' W 023°35'513.1
2018-Aug-05 18:00N 39°17' W 023°28'  

Dump ship's entire track history